sensor_id;sensor_type;location;lat;lon;timestamp;pressure;altitude;pressure_sealevel;temperature;humidity
46464;BME280;32161;48.148;-1.554;2023-08-08T00:02:00;101339.56;;;18.13;89.58
46464;BME280;32161;48.148;-1.554;2023-08-08T00:04:27;101340.66;;;18.12;89.77
46464;BME280;32161;48.148;-1.554;2023-08-08T00:06:56;101343.69;;;18.11;89.67
46464;BME280;32161;48.148;-1.554;2023-08-08T00:09:24;101341.19;;;18.09;89.33
46464;BME280;32161;48.148;-1.554;2023-08-08T00:11:51;101338.72;;;18.08;89.45
46464;BME280;32161;48.148;-1.554;2023-08-08T00:14:19;101338.13;;;18.05;89.67
46464;BME280;32161;48.148;-1.554;2023-08-08T00:16:46;101329.06;;;18.05;89.73
46464;BME280;32161;48.148;-1.554;2023-08-08T00:19:14;101332.31;;;18.02;90.29
46464;BME280;32161;48.148;-1.554;2023-08-08T00:21:41;101332.31;;;18.02;90.17
46464;BME280;32161;48.148;-1.554;2023-08-08T00:24:10;101330.69;;;18.01;89.83
46464;BME280;32161;48.148;-1.554;2023-08-08T00:26:38;101331.78;;;18.00;89.81
46464;BME280;32161;48.148;-1.554;2023-08-08T00:29:05;101330.66;;;17.96;89.71
46464;BME280;32161;48.148;-1.554;2023-08-08T00:31:33;101325.69;;;17.93;89.79
46464;BME280;32161;48.148;-1.554;2023-08-08T00:34:01;101328.44;;;17.93;89.94
46464;BME280;32161;48.148;-1.554;2023-08-08T00:36:28;101325.09;;;17.91;89.68
46464;BME280;32161;48.148;-1.554;2023-08-08T00:38:56;101330.88;;;17.89;89.84
46464;BME280;32161;48.148;-1.554;2023-08-08T00:41:26;101321.78;;;17.84;89.37
46464;BME280;32161;48.148;-1.554;2023-08-08T00:43:53;101318.75;;;17.85;89.43
46464;BME280;32161;48.148;-1.554;2023-08-08T00:46:22;101308.03;;;17.84;89.30
46464;BME280;32161;48.148;-1.554;2023-08-08T00:48:51;101314.91;;;17.86;89.16
46464;BME280;32161;48.148;-1.554;2023-08-08T00:51:19;101313.81;;;17.87;89.24
46464;BME280;32161;48.148;-1.554;2023-08-08T00:53:48;101306.88;;;17.79;89.02
46464;BME280;32161;48.148;-1.554;2023-08-08T00:56:16;101296.97;;;17.78;88.79
46464;BME280;32161;48.148;-1.554;2023-08-08T00:58:46;101300.81;;;17.77;88.59
46464;BME280;32161;48.148;-1.554;2023-08-08T01:01:15;101304.41;;;17.78;88.41
46464;BME280;32161;48.148;-1.554;2023-08-08T01:03:44;101295.28;;;17.72;88.09
46464;BME280;32161;48.148;-1.554;2023-08-08T01:06:19;101297.72;;;17.69;88.93
46464;BME280;32161;48.148;-1.554;2023-08-08T01:08:55;101304.56;;;17.66;89.05
46464;BME280;32161;48.148;-1.554;2023-08-08T01:11:25;101301.28;;;17.64;88.89
46464;BME280;32161;48.148;-1.554;2023-08-08T01:13:56;101306.19;;;17.62;88.93
46464;BME280;32161;48.148;-1.554;2023-08-08T01:16:24;101297.91;;;17.57;89.22
46464;BME280;32161;48.148;-1.554;2023-08-08T01:18:53;101305.88;;;17.58;89.58
46464;BME280;32161;48.148;-1.554;2023-08-08T01:21:25;101304.78;;;17.60;88.74
46464;BME280;32161;48.148;-1.554;2023-08-08T01:24:00;101299.78;;;17.51;89.00
46464;BME280;32161;48.148;-1.554;2023-08-08T01:26:30;101299.78;;;17.51;88.18
46464;BME280;32161;48.148;-1.554;2023-08-08T01:28:58;101285.41;;;17.39;88.64
46464;BME280;32161;48.148;-1.554;2023-08-08T01:31:26;101288.09;;;17.34;89.04
46464;BME280;32161;48.148;-1.554;2023-08-08T01:33:53;101285.34;;;17.34;89.17
46464;BME280;32161;48.148;-1.554;2023-08-08T01:36:30;101274.91;;;17.36;89.59
46464;BME280;32161;48.148;-1.554;2023-08-08T01:39:00;101271.38;;;17.41;89.53
46464;BME280;32161;48.148;-1.554;2023-08-08T01:41:32;101264.25;;;17.45;89.54
46464;BME280;32161;48.148;-1.554;2023-08-08T01:44:01;101257.94;;;17.44;88.57
46464;BME280;32161;48.148;-1.554;2023-08-08T01:46:29;101255.50;;;17.48;88.55
46464;BME280;32161;48.148;-1.554;2023-08-08T01:48:58;101267.63;;;17.52;88.51
46464;BME280;32161;48.148;-1.554;2023-08-08T01:51:27;101256.63;;;17.52;88.36
46464;BME280;32161;48.148;-1.554;2023-08-08T01:53:54;101262.13;;;17.52;87.85
46464;BME280;32161;48.148;-1.554;2023-08-08T01:56:22;101258.31;;;17.53;87.20
46464;BME280;32161;48.148;-1.554;2023-08-08T01:58:51;101254.97;;;17.51;87.28
46464;BME280;32161;48.148;-1.554;2023-08-08T02:01:18;101265.41;;;17.49;86.98
46464;BME280;32161;48.148;-1.554;2023-08-08T02:03:46;101265.94;;;17.46;86.59
46464;BME280;32161;48.148;-1.554;2023-08-08T02:06:14;101274.44;;;17.44;86.27
46464;BME280;32161;48.148;-1.554;2023-08-08T02:08:41;101267.81;;;17.40;86.24
46464;BME280;32161;48.148;-1.554;2023-08-08T02:11:09;101261.44;;;17.35;86.99
46464;BME280;32161;48.148;-1.554;2023-08-08T02:13:36;101262.78;;;17.32;87.29
46464;BME280;32161;48.148;-1.554;2023-08-08T02:16:06;101257.28;;;17.27;86.90
46464;BME280;32161;48.148;-1.554;2023-08-08T02:18:33;101269.06;;;17.22;87.28
46464;BME280;32161;48.148;-1.554;2023-08-08T02:21:02;101270.41;;;17.20;88.01
46464;BME280;32161;48.148;-1.554;2023-08-08T02:23:29;101262.66;;;17.17;88.37
46464;BME280;32161;48.148;-1.554;2023-08-08T02:25:57;101265.69;;;17.15;88.45
46464;BME280;32161;48.148;-1.554;2023-08-08T02:28:24;101261.81;;;17.11;89.00
46464;BME280;32161;48.148;-1.554;2023-08-08T02:30:53;101258.47;;;17.09;89.31
46464;BME280;32161;48.148;-1.554;2023-08-08T02:33:22;101264.25;;;17.07;89.40
46464;BME280;32161;48.148;-1.554;2023-08-08T02:35:50;101264.25;;;17.07;89.56
46464;BME280;32161;48.148;-1.554;2023-08-08T02:38:17;101261.75;;;17.06;89.69
46464;BME280;32161;48.148;-1.554;2023-08-08T02:40:45;101262.03;;;17.04;89.86
46464;BME280;32161;48.148;-1.554;2023-08-08T02:43:12;101262.28;;;17.03;89.89
46464;BME280;32161;48.148;-1.554;2023-08-08T02:45:40;101269.44;;;17.04;89.22
46464;BME280;32161;48.148;-1.554;2023-08-08T02:48:07;101269.44;;;17.04;88.47
46464;BME280;32161;48.148;-1.554;2023-08-08T02:50:36;101266.94;;;17.02;88.58
46464;BME280;32161;48.148;-1.554;2023-08-08T02:53:04;101269.41;;;16.99;88.44
46464;BME280;32161;48.148;-1.554;2023-08-08T02:55:31;101271.56;;;16.97;88.84
46464;BME280;32161;48.148;-1.554;2023-08-08T02:57:59;101266.34;;;16.95;89.20
46464;BME280;32161;48.148;-1.554;2023-08-08T03:00:26;101267.94;;;16.91;89.79
46464;BME280;32161;48.148;-1.554;2023-08-08T03:02:54;101263.78;;;16.89;90.32
46464;BME280;32161;48.148;-1.554;2023-08-08T03:05:22;101273.38;;;16.86;90.93
46464;BME280;32161;48.148;-1.554;2023-08-08T03:07:51;101271.13;;;16.83;90.93
46464;BME280;32161;48.148;-1.554;2023-08-08T03:10:18;101260.16;;;16.83;91.07
46464;BME280;32161;48.148;-1.554;2023-08-08T03:12:46;101274.41;;;16.80;91.51
46464;BME280;32161;48.148;-1.554;2023-08-08T03:15:14;101272.19;;;16.77;92.18
46464;BME280;32161;48.148;-1.554;2023-08-08T03:17:42;101264.19;;;16.75;92.79
46464;BME280;32161;48.148;-1.554;2023-08-08T03:20:11;101260.91;;;16.73;93.07
46464;BME280;32161;48.148;-1.554;2023-08-08T03:22:38;101264.69;;;16.72;93.57
46464;BME280;32161;48.148;-1.554;2023-08-08T03:25:08;101261.09;;;16.72;93.68
46464;BME280;32161;48.148;-1.554;2023-08-08T03:27:36;101265.53;;;16.73;93.44
46464;BME280;32161;48.148;-1.554;2023-08-08T03:30:05;101265.53;;;16.73;93.05
46464;BME280;32161;48.148;-1.554;2023-08-08T03:32:32;101272.69;;;16.74;92.97
46464;BME280;32161;48.148;-1.554;2023-08-08T03:35:00;101274.81;;;16.72;93.13
46464;BME280;32161;48.148;-1.554;2023-08-08T03:37:28;101266.88;;;16.70;93.65
46464;BME280;32161;48.148;-1.554;2023-08-08T03:39:55;101273.44;;;16.69;93.67
46464;BME280;32161;48.148;-1.554;2023-08-08T03:42:24;101273.44;;;16.69;94.03
46464;BME280;32161;48.148;-1.554;2023-08-08T03:44:51;101271.22;;;16.66;94.02
46464;BME280;32161;48.148;-1.554;2023-08-08T03:47:19;101271.47;;;16.65;93.96
46464;BME280;32161;48.148;-1.554;2023-08-08T03:49:48;101268.97;;;16.63;94.33
46464;BME280;32161;48.148;-1.554;2023-08-08T03:52:15;101266.22;;;16.63;94.41
46464;BME280;32161;48.148;-1.554;2023-08-08T03:54:43;101269.81;;;16.64;93.23
46464;BME280;32161;48.148;-1.554;2023-08-08T03:57:11;101260.50;;;16.65;92.55
46464;BME280;32161;48.148;-1.554;2023-08-08T03:59:40;101260.50;;;16.65;91.77
46464;BME280;32161;48.148;-1.554;2023-08-08T04:02:07;101264.06;;;16.65;91.58
46464;BME280;32161;48.148;-1.554;2023-08-08T04:04:35;101250.59;;;16.64;91.44
46464;BME280;32161;48.148;-1.554;2023-08-08T04:07:03;101252.28;;;16.65;91.18
46464;BME280;32161;48.148;-1.554;2023-08-08T04:09:31;101261.00;;;16.62;89.53
46464;BME280;32161;48.148;-1.554;2023-08-08T04:11:59;101242.31;;;16.58;89.66
46464;BME280;32161;48.148;-1.554;2023-08-08T04:14:26;101240.34;;;16.54;89.80
46464;BME280;32161;48.148;-1.554;2023-08-08T04:16:56;101250.75;;;16.52;89.72
46464;BME280;32161;48.148;-1.554;2023-08-08T04:19:23;101254.53;;;16.46;88.15
46464;BME280;32161;48.148;-1.554;2023-08-08T04:21:51;101252.53;;;16.41;88.15
46464;BME280;32161;48.148;-1.554;2023-08-08T04:24:18;101255.50;;;16.34;89.06
46464;BME280;32161;48.148;-1.554;2023-08-08T04:26:46;101252.09;;;16.27;89.21
46464;BME280;32161;48.148;-1.554;2023-08-08T04:29:14;101248.72;;;16.20;90.42
46464;BME280;32161;48.148;-1.554;2023-08-08T04:31:41;101260.69;;;16.14;91.50
46464;BME280;32161;48.148;-1.554;2023-08-08T04:34:10;101256.81;;;16.10;92.05
46464;BME280;32161;48.148;-1.554;2023-08-08T04:36:38;101257.84;;;16.04;92.00
46464;BME280;32161;48.148;-1.554;2023-08-08T04:39:05;101264.34;;;15.98;90.79
46464;BME280;32161;48.148;-1.554;2023-08-08T04:41:34;101260.72;;;15.92;89.77
46464;BME280;32161;48.148;-1.554;2023-08-08T04:44:02;101253.25;;;15.88;89.68
46464;BME280;32161;48.148;-1.554;2023-08-08T04:46:30;101248.81;;;15.86;89.89
46464;BME280;32161;48.148;-1.554;2023-08-08T04:48:57;101253.97;;;15.83;89.33
46464;BME280;32161;48.148;-1.554;2023-08-08T04:51:26;101257.25;;;15.80;90.61
46464;BME280;32161;48.148;-1.554;2023-08-08T04:53:54;101257.16;;;15.75;91.85
46464;BME280;32161;48.148;-1.554;2023-08-08T04:56:21;101256.84;;;15.71;92.79
46464;BME280;32161;48.148;-1.554;2023-08-08T04:58:49;101256.78;;;15.66;93.22
46464;BME280;32161;48.148;-1.554;2023-08-08T05:01:16;101257.50;;;15.61;93.00
46464;BME280;32161;48.148;-1.554;2023-08-08T05:03:46;101262.66;;;15.58;93.28
46464;BME280;32161;48.148;-1.554;2023-08-08T05:06:14;101269.72;;;15.54;93.02
46464;BME280;32161;48.148;-1.554;2023-08-08T05:08:43;101257.34;;;15.51;91.92
46464;BME280;32161;48.148;-1.554;2023-08-08T05:11:10;101258.97;;;15.52;91.22
46464;BME280;32161;48.148;-1.554;2023-08-08T05:13:38;101259.84;;;15.53;91.06
46464;BME280;32161;48.148;-1.554;2023-08-08T05:16:06;101256.56;;;15.56;90.36
46464;BME280;32161;48.148;-1.554;2023-08-08T05:18:33;101258.25;;;15.57;89.63
46464;BME280;32161;48.148;-1.554;2023-08-08T05:21:01;101267.53;;;15.56;89.21
46464;BME280;32161;48.148;-1.554;2023-08-08T05:23:28;101270.53;;;15.54;89.81
46464;BME280;32161;48.148;-1.554;2023-08-08T05:25:57;101269.72;;;15.54;92.32
46464;BME280;32161;48.148;-1.554;2023-08-08T05:28:25;101269.63;;;15.49;92.91
46464;BME280;32161;48.148;-1.554;2023-08-08T05:30:52;101258.09;;;15.47;93.41
46464;BME280;32161;48.148;-1.554;2023-08-08T05:33:20;101257.50;;;15.45;93.18
46464;BME280;32161;48.148;-1.554;2023-08-08T05:35:48;101258.59;;;15.44;93.14
46464;BME280;32161;48.148;-1.554;2023-08-08T05:38:15;101269.06;;;15.47;93.14
46464;BME280;32161;48.148;-1.554;2023-08-08T05:40:43;101271.28;;;15.50;92.50
46464;BME280;32161;48.148;-1.554;2023-08-08T05:43:12;101264.22;;;15.54;92.94
46464;BME280;32161;48.148;-1.554;2023-08-08T05:45:43;101257.72;;;15.60;93.93
46464;BME280;32161;48.148;-1.554;2023-08-08T05:48:11;101261.06;;;15.62;94.50
46464;BME280;32161;48.148;-1.554;2023-08-08T05:50:39;101258.31;;;15.62;94.79
46464;BME280;32161;48.148;-1.554;2023-08-08T05:53:06;101255.31;;;15.63;95.16
46464;BME280;32161;48.148;-1.554;2023-08-08T05:55:34;101257.59;;;15.67;95.32
46464;BME280;32161;48.148;-1.554;2023-08-08T05:58:02;101256.28;;;15.69;94.68
46464;BME280;32161;48.148;-1.554;2023-08-08T06:00:31;101266.47;;;15.74;94.80
46464;BME280;32161;48.148;-1.554;2023-08-08T06:03:00;101270.63;;;15.76;94.94
46464;BME280;32161;48.148;-1.554;2023-08-08T06:05:28;101275.84;;;15.78;94.87
46464;BME280;32161;48.148;-1.554;2023-08-08T06:07:55;101281.66;;;15.81;95.36
46464;BME280;32161;48.148;-1.554;2023-08-08T06:10:23;101282.81;;;15.85;95.53
46464;BME280;32161;48.148;-1.554;2023-08-08T06:12:51;101275.75;;;15.90;96.27
46464;BME280;32161;48.148;-1.554;2023-08-08T06:15:19;101269.50;;;15.94;96.36
46464;BME280;32161;48.148;-1.554;2023-08-08T06:17:48;101263.50;;;15.97;96.40
46464;BME280;32161;48.148;-1.554;2023-08-08T06:20:16;101268.22;;;16.02;96.41
46464;BME280;32161;48.148;-1.554;2023-08-08T06:22:43;101266.41;;;16.07;96.63
46464;BME280;32161;48.148;-1.554;2023-08-08T06:25:11;101262.63;;;16.14;96.98
46464;BME280;32161;48.148;-1.554;2023-08-08T06:27:39;101270.13;;;16.18;97.39
46464;BME280;32161;48.148;-1.554;2023-08-08T06:30:07;101279.22;;;16.24;97.77
46464;BME280;32161;48.148;-1.554;2023-08-08T06:32:35;101279.03;;;16.30;97.67
46464;BME280;32161;48.148;-1.554;2023-08-08T06:35:06;101284.06;;;16.39;97.26
46464;BME280;32161;48.148;-1.554;2023-08-08T06:37:33;101279.78;;;16.48;97.30
46464;BME280;32161;48.148;-1.554;2023-08-08T06:40:01;101276.03;;;16.54;97.41
46464;BME280;32161;48.148;-1.554;2023-08-08T06:42:29;101276.66;;;16.61;97.25
46464;BME280;32161;48.148;-1.554;2023-08-08T06:44:56;101285.22;;;16.65;97.11
46464;BME280;32161;48.148;-1.554;2023-08-08T06:47:24;101280.03;;;16.68;97.70
46464;BME280;32161;48.148;-1.554;2023-08-08T06:49:51;101282.59;;;16.75;97.61
46464;BME280;32161;48.148;-1.554;2023-08-08T06:52:21;101268.97;;;16.85;97.01
46464;BME280;32161;48.148;-1.554;2023-08-08T06:54:48;101265.47;;;16.95;95.26
46464;BME280;32161;48.148;-1.554;2023-08-08T06:57:16;101268.34;;;17.05;94.16
46464;BME280;32161;48.148;-1.554;2023-08-08T06:59:43;101266.75;;;17.14;93.05
46464;BME280;32161;48.148;-1.554;2023-08-08T07:02:16;101262.69;;;17.22;92.61
46464;BME280;32161;48.148;-1.554;2023-08-08T07:04:44;101269.63;;;17.29;92.17
46464;BME280;32161;48.148;-1.554;2023-08-08T07:07:11;101267.25;;;17.38;91.67
46464;BME280;32161;48.148;-1.554;2023-08-08T07:09:40;101272.50;;;17.45;91.15
46464;BME280;32161;48.148;-1.554;2023-08-08T07:12:08;101279.19;;;17.54;90.03
46464;BME280;32161;48.148;-1.554;2023-08-08T07:14:36;101273.47;;;17.61;89.31
46464;BME280;32161;48.148;-1.554;2023-08-08T07:17:04;101266.09;;;17.71;91.16
46464;BME280;32161;48.148;-1.554;2023-08-08T07:19:31;101271.41;;;17.78;90.51
46464;BME280;32161;48.148;-1.554;2023-08-08T07:21:59;101260.69;;;17.81;89.65
46464;BME280;32161;48.148;-1.554;2023-08-08T07:24:26;101264.56;;;17.86;88.72
46464;BME280;32161;48.148;-1.554;2023-08-08T07:26:57;101266.28;;;17.92;89.42
46464;BME280;32161;48.148;-1.554;2023-08-08T07:29:25;101265.47;;;17.96;88.95
46464;BME280;32161;48.148;-1.554;2023-08-08T07:31:53;101269.34;;;18.00;88.49
46464;BME280;32161;48.148;-1.554;2023-08-08T07:34:21;101263.25;;;17.98;86.16
46464;BME280;32161;48.148;-1.554;2023-08-08T07:36:49;101259.16;;;18.01;85.85
46464;BME280;32161;48.148;-1.554;2023-08-08T07:39:16;101263.03;;;18.10;85.70
46464;BME280;32161;48.148;-1.554;2023-08-08T07:41:44;101263.63;;;18.17;87.84
46464;BME280;32161;48.148;-1.554;2023-08-08T07:44:13;101256.50;;;18.21;86.09
46464;BME280;32161;48.148;-1.554;2023-08-08T07:46:40;101268.06;;;18.23;86.67
46464;BME280;32161;48.148;-1.554;2023-08-08T07:49:08;101257.91;;;18.29;86.66
46464;BME280;32161;48.148;-1.554;2023-08-08T07:51:36;101259.31;;;18.37;87.68
46464;BME280;32161;48.148;-1.554;2023-08-08T07:54:03;101261.81;;;18.43;85.92
46464;BME280;32161;48.148;-1.554;2023-08-08T07:56:35;101265.69;;;18.52;85.29
46464;BME280;32161;48.148;-1.554;2023-08-08T07:59:03;101261.31;;;18.57;83.85
46464;BME280;32161;48.148;-1.554;2023-08-08T08:01:32;101251.13;;;18.67;84.35
46464;BME280;32161;48.148;-1.554;2023-08-08T08:04:00;101255.59;;;18.78;84.16
46464;BME280;32161;48.148;-1.554;2023-08-08T08:06:28;101252.31;;;18.82;83.58
46464;BME280;32161;48.148;-1.554;2023-08-08T08:08:56;101248.47;;;18.88;82.66
46464;BME280;32161;48.148;-1.554;2023-08-08T08:11:23;101254.25;;;18.96;83.04
46464;BME280;32161;48.148;-1.554;2023-08-08T08:13:51;101251.78;;;19.00;81.46
46464;BME280;32161;48.148;-1.554;2023-08-08T08:16:19;101251.25;;;19.03;81.63
46464;BME280;32161;48.148;-1.554;2023-08-08T08:18:48;101252.03;;;19.14;80.82
46464;BME280;32161;48.148;-1.554;2023-08-08T08:21:15;101254.00;;;19.23;79.94
46464;BME280;32161;48.148;-1.554;2023-08-08T08:23:43;101261.44;;;19.28;80.99
46464;BME280;32161;48.148;-1.554;2023-08-08T08:26:11;101259.78;;;19.37;81.40
46464;BME280;32161;48.148;-1.554;2023-08-08T08:28:39;101261.97;;;19.40;81.78
46464;BME280;32161;48.148;-1.554;2023-08-08T08:31:07;101258.94;;;19.52;80.70
46464;BME280;32161;48.148;-1.554;2023-08-08T08:33:35;101261.16;;;19.60;79.50
46464;BME280;32161;48.148;-1.554;2023-08-08T08:36:04;101263.91;;;19.70;79.04
46464;BME280;32161;48.148;-1.554;2023-08-08T08:38:32;101267.19;;;19.78;78.11
46464;BME280;32161;48.148;-1.554;2023-08-08T08:41:00;101261.66;;;19.88;76.70
46464;BME280;32161;48.148;-1.554;2023-08-08T08:43:30;101265.22;;;20.04;77.28
46464;BME280;32161;48.148;-1.554;2023-08-08T08:46:01;101256.03;;;20.13;76.80
46464;BME280;32161;48.148;-1.554;2023-08-08T08:48:29;101259.56;;;20.29;76.37
46464;BME280;32161;48.148;-1.554;2023-08-08T08:50:57;101257.06;;;20.33;76.03
46464;BME280;32161;48.148;-1.554;2023-08-08T08:53:26;101254.84;;;20.40;76.17
46464;BME280;32161;48.148;-1.554;2023-08-08T08:55:54;101252.31;;;20.54;76.32
46464;BME280;32161;48.148;-1.554;2023-08-08T08:58:25;101259.97;;;20.67;75.58
46464;BME280;32161;48.148;-1.554;2023-08-08T09:00:55;101244.75;;;20.69;73.21
46464;BME280;32161;48.148;-1.554;2023-08-08T09:03:24;101233.66;;;20.75;73.15
46464;BME280;32161;48.148;-1.554;2023-08-08T09:05:53;101234.19;;;20.82;74.60
46464;BME280;32161;48.148;-1.554;2023-08-08T09:08:22;101238.78;;;20.96;75.50
46464;BME280;32161;48.148;-1.554;2023-08-08T09:10:51;101246.66;;;21.13;72.82
46464;BME280;32161;48.148;-1.554;2023-08-08T09:13:18;101246.91;;;21.17;71.86
46464;BME280;32161;48.148;-1.554;2023-08-08T09:15:48;101242.72;;;21.19;71.61
46464;BME280;32161;48.148;-1.554;2023-08-08T09:18:16;101236.34;;;21.24;71.66
46464;BME280;32161;48.148;-1.554;2023-08-08T09:20:47;101244.56;;;21.29;70.86
46464;BME280;32161;48.148;-1.554;2023-08-08T09:23:15;101244.53;;;21.39;69.02
46464;BME280;32161;48.148;-1.554;2023-08-08T09:25:43;101252.31;;;21.37;69.96
46464;BME280;32161;48.148;-1.554;2023-08-08T09:28:12;101252.81;;;21.39;69.94
46464;BME280;32161;48.148;-1.554;2023-08-08T09:30:41;101260.72;;;21.51;71.52
46464;BME280;32161;48.148;-1.554;2023-08-08T09:33:09;101267.50;;;21.64;70.33
46464;BME280;32161;48.148;-1.554;2023-08-08T09:35:38;101264.38;;;21.76;68.55
46464;BME280;32161;48.148;-1.554;2023-08-08T09:38:06;101249.28;;;21.87;67.66
46464;BME280;32161;48.148;-1.554;2023-08-08T09:40:34;101256.13;;;21.94;68.72
46464;BME280;32161;48.148;-1.554;2023-08-08T09:43:02;101245.25;;;22.03;67.22
46464;BME280;32161;48.148;-1.554;2023-08-08T09:45:37;101251.88;;;22.02;65.53
46464;BME280;32161;48.148;-1.554;2023-08-08T09:48:06;101240.88;;;21.97;65.85
46464;BME280;32161;48.148;-1.554;2023-08-08T09:50:33;101239.00;;;21.92;67.06
46464;BME280;32161;48.148;-1.554;2023-08-08T09:53:02;101238.88;;;22.03;66.39
46464;BME280;32161;48.148;-1.554;2023-08-08T09:55:30;101237.19;;;22.07;65.89
46464;BME280;32161;48.148;-1.554;2023-08-08T09:57:59;101234.69;;;22.05;63.74
46464;BME280;32161;48.148;-1.554;2023-08-08T10:00:28;101238.09;;;21.97;64.66
46464;BME280;32161;48.148;-1.554;2023-08-08T10:02:58;101222.56;;;22.01;65.36
46464;BME280;32161;48.148;-1.554;2023-08-08T10:05:27;101226.59;;;22.14;67.31
46464;BME280;32161;48.148;-1.554;2023-08-08T10:07:54;101228.03;;;22.30;67.59
46464;BME280;32161;48.148;-1.554;2023-08-08T10:10:22;101228.56;;;22.32;67.40
46464;BME280;32161;48.148;-1.554;2023-08-08T10:12:51;101233.50;;;22.35;65.42
46464;BME280;32161;48.148;-1.554;2023-08-08T10:15:19;101224.25;;;22.45;64.64
46464;BME280;32161;48.148;-1.554;2023-08-08T10:17:55;101223.72;;;22.43;63.61
46464;BME280;32161;48.148;-1.554;2023-08-08T10:20:25;101227.00;;;22.45;64.26
46464;BME280;32161;48.148;-1.554;2023-08-08T10:22:54;101225.91;;;22.65;63.26
46464;BME280;32161;48.148;-1.554;2023-08-08T10:25:26;101217.44;;;22.56;60.95
46464;BME280;32161;48.148;-1.554;2023-08-08T10:28:05;101213.59;;;22.52;60.60
46464;BME280;32161;48.148;-1.554;2023-08-08T10:30:44;101209.31;;;22.60;61.34
46464;BME280;32161;48.148;-1.554;2023-08-08T10:33:20;101209.19;;;22.51;59.63
46464;BME280;32161;48.148;-1.554;2023-08-08T10:35:57;101218.53;;;22.55;63.58
46464;BME280;32161;48.148;-1.554;2023-08-08T10:38:26;101201.19;;;22.69;62.25
46464;BME280;32161;48.148;-1.554;2023-08-08T10:40:58;101196.69;;;22.73;61.30
46464;BME280;32161;48.148;-1.554;2023-08-08T10:43:27;101199.72;;;22.71;59.63
46464;BME280;32161;48.148;-1.554;2023-08-08T10:45:58;101208.72;;;22.82;58.36
46464;BME280;32161;48.148;-1.554;2023-08-08T10:48:26;101211.44;;;22.87;57.44
46464;BME280;32161;48.148;-1.554;2023-08-08T10:50:58;101214.88;;;22.98;58.73
46464;BME280;32161;48.148;-1.554;2023-08-08T10:53:27;101225.94;;;23.17;61.58
46464;BME280;32161;48.148;-1.554;2023-08-08T10:55:59;101216.19;;;23.19;60.74
46464;BME280;32161;48.148;-1.554;2023-08-08T10:58:37;101220.59;;;23.20;59.00
46464;BME280;32161;48.148;-1.554;2023-08-08T11:01:06;101221.63;;;23.24;57.48
46464;BME280;32161;48.148;-1.554;2023-08-08T11:03:36;101213.03;;;23.26;60.92
46464;BME280;32161;48.148;-1.554;2023-08-08T11:06:09;101214.50;;;23.37;60.16
46464;BME280;32161;48.148;-1.554;2023-08-08T11:08:37;101217.00;;;23.52;59.86
46464;BME280;32161;48.148;-1.554;2023-08-08T11:11:06;101217.03;;;23.66;58.73
46464;BME280;32161;48.148;-1.554;2023-08-08T11:13:34;101213.13;;;23.67;60.60
46464;BME280;32161;48.148;-1.554;2023-08-08T11:16:01;101213.03;;;23.72;56.83
46464;BME280;32161;48.148;-1.554;2023-08-08T11:18:29;101212.72;;;23.87;58.81
46464;BME280;32161;48.148;-1.554;2023-08-08T11:20:57;101210.97;;;23.92;56.33
46464;BME280;32161;48.148;-1.554;2023-08-08T11:23:26;101218.38;;;23.96;57.84
46464;BME280;32161;48.148;-1.554;2023-08-08T11:25:57;101214.38;;;24.02;57.55
46464;BME280;32161;48.148;-1.554;2023-08-08T11:28:25;101197.47;;;24.12;55.68
46464;BME280;32161;48.148;-1.554;2023-08-08T11:30:53;101189.25;;;24.07;59.05
46464;BME280;32161;48.148;-1.554;2023-08-08T11:33:21;101184.59;;;24.17;57.44
46464;BME280;32161;48.148;-1.554;2023-08-08T11:35:48;101179.66;;;24.27;58.56
46464;BME280;32161;48.148;-1.554;2023-08-08T11:38:17;101170.28;;;24.37;56.78
46464;BME280;32161;48.148;-1.554;2023-08-08T11:40:46;101169.75;;;24.49;57.38
46464;BME280;32161;48.148;-1.554;2023-08-08T11:43:14;101166.09;;;24.62;56.02
46464;BME280;32161;48.148;-1.554;2023-08-08T11:45:43;101158.16;;;24.69;56.08
46464;BME280;32161;48.148;-1.554;2023-08-08T11:48:11;101150.00;;;24.73;54.14
46464;BME280;32161;48.148;-1.554;2023-08-08T11:50:38;101151.63;;;24.74;55.58
46464;BME280;32161;48.148;-1.554;2023-08-08T11:53:08;101157.75;;;24.84;58.73
46464;BME280;32161;48.148;-1.554;2023-08-08T11:55:36;101150.06;;;24.81;54.88
46464;BME280;32161;48.148;-1.554;2023-08-08T11:58:06;101150.50;;;24.75;56.45
46464;BME280;32161;48.148;-1.554;2023-08-08T12:00:34;101151.06;;;24.85;56.70
46464;BME280;32161;48.148;-1.554;2023-08-08T12:03:03;101159.34;;;24.99;56.73
46464;BME280;32161;48.148;-1.554;2023-08-08T12:05:37;101152.50;;;25.05;57.06
46464;BME280;32161;48.148;-1.554;2023-08-08T12:08:05;101154.78;;;25.03;55.20
46464;BME280;32161;48.148;-1.554;2023-08-08T12:10:33;101150.44;;;25.11;56.78
46464;BME280;32161;48.148;-1.554;2023-08-08T12:13:01;101146.88;;;25.19;55.29
46464;BME280;32161;48.148;-1.554;2023-08-08T12:15:31;101143.59;;;25.17;55.30
46464;BME280;32161;48.148;-1.554;2023-08-08T12:18:01;101142.91;;;25.12;58.59
46464;BME280;32161;48.148;-1.554;2023-08-08T12:20:30;101135.38;;;25.12;54.60
46464;BME280;32161;48.148;-1.554;2023-08-08T12:22:58;101133.59;;;25.16;56.38
46464;BME280;32161;48.148;-1.554;2023-08-08T12:25:26;101133.00;;;25.28;56.26
46464;BME280;32161;48.148;-1.554;2023-08-08T12:27:53;101143.31;;;25.27;56.76
46464;BME280;32161;48.148;-1.554;2023-08-08T12:30:21;101128.78;;;25.30;55.78
46464;BME280;32161;48.148;-1.554;2023-08-08T12:32:50;101130.44;;;25.40;55.71
46464;BME280;32161;48.148;-1.554;2023-08-08T12:35:17;101131.09;;;25.37;55.51
46464;BME280;32161;48.148;-1.554;2023-08-08T12:37:44;101132.09;;;25.41;59.25
46464;BME280;32161;48.148;-1.554;2023-08-08T12:40:12;101130.81;;;25.47;57.52
46464;BME280;32161;48.148;-1.554;2023-08-08T12:42:40;101129.22;;;25.64;57.03
46464;BME280;32161;48.148;-1.554;2023-08-08T12:45:08;101119.56;;;25.61;55.41
46464;BME280;32161;48.148;-1.554;2023-08-08T12:47:37;101119.69;;;25.56;58.05